sensor_id;sensor_type;location;lat;lon;timestamp;P1;durP1;ratioP1;P2;durP2;ratioP2
35150;SDS011;55720;51.972;4.624;2023-07-02T00:02:16;8.50;;;3.90;;
35150;SDS011;55720;51.972;4.624;2023-07-02T00:04:43;8.10;;;3.78;;
35150;SDS011;55720;51.972;4.624;2023-07-02T00:07:08;14.77;;;4.53;;
35150;SDS011;55720;51.972;4.624;2023-07-02T00:09:34;9.80;;;3.88;;
35150;SDS011;55720;51.972;4.624;2023-07-02T00:11:59;9.50;;;3.72;;
35150;SDS011;55720;51.972;4.624;2023-07-02T00:14:25;10.23;;;3.65;;
35150;SDS011;55720;51.972;4.624;2023-07-02T00:16:50;12.55;;;4.25;;
35150;SDS011;55720;51.972;4.624;2023-07-02T00:19:15;12.27;;;3.65;;
35150;SDS011;55720;51.972;4.624;2023-07-02T00:21:41;13.00;;;4.05;;
35150;SDS011;55720;51.972;4.624;2023-07-02T00:24:08;11.27;;;4.05;;
35150;SDS011;55720;51.972;4.624;2023-07-02T00:26:37;16.87;;;3.50;;
35150;SDS011;55720;51.972;4.624;2023-07-02T00:29:03;10.60;;;4.10;;
35150;SDS011;55720;51.972;4.624;2023-07-02T00:31:30;6.18;;;3.22;;
35150;SDS011;55720;51.972;4.624;2023-07-02T00:33:56;8.88;;;3.28;;
35150;SDS011;55720;51.972;4.624;2023-07-02T00:36:22;9.27;;;3.10;;
35150;SDS011;55720;51.972;4.624;2023-07-02T00:38:48;10.15;;;2.88;;
35150;SDS011;55720;51.972;4.624;2023-07-02T00:41:14;5.15;;;3.25;;
35150;SDS011;55720;51.972;4.624;2023-07-02T00:43:40;4.78;;;2.72;;
35150;SDS011;55720;51.972;4.624;2023-07-02T00:46:09;10.38;;;3.60;;
35150;SDS011;55720;51.972;4.624;2023-07-02T00:48:35;7.97;;;2.97;;
35150;SDS011;55720;51.972;4.624;2023-07-02T00:51:01;12.35;;;3.70;;
35150;SDS011;55720;51.972;4.624;2023-07-02T00:53:26;6.65;;;3.65;;
35150;SDS011;55720;51.972;4.624;2023-07-02T00:55:51;9.80;;;3.63;;
35150;SDS011;55720;51.972;4.624;2023-07-02T00:58:17;13.57;;;4.13;;
35150;SDS011;55720;51.972;4.624;2023-07-02T01:00:46;10.57;;;4.28;;
35150;SDS011;55720;51.972;4.624;2023-07-02T01:03:12;12.45;;;4.70;;
35150;SDS011;55720;51.972;4.624;2023-07-02T01:05:37;11.82;;;4.50;;
35150;SDS011;55720;51.972;4.624;2023-07-02T01:08:06;11.27;;;4.38;;
35150;SDS011;55720;51.972;4.624;2023-07-02T01:10:32;9.00;;;3.60;;
35150;SDS011;55720;51.972;4.624;2023-07-02T01:13:00;15.80;;;4.70;;
35150;SDS011;55720;51.972;4.624;2023-07-02T01:15:29;23.90;;;5.55;;
35150;SDS011;55720;51.972;4.624;2023-07-02T01:17:54;12.05;;;5.00;;
35150;SDS011;55720;51.972;4.624;2023-07-02T01:20:20;22.25;;;5.28;;
35150;SDS011;55720;51.972;4.624;2023-07-02T01:22:47;16.60;;;5.20;;
35150;SDS011;55720;51.972;4.624;2023-07-02T01:25:16;12.32;;;5.35;;
35150;SDS011;55720;51.972;4.624;2023-07-02T01:27:42;18.20;;;6.10;;
35150;SDS011;55720;51.972;4.624;2023-07-02T01:30:08;16.77;;;5.38;;
35150;SDS011;55720;51.972;4.624;2023-07-02T01:32:34;11.20;;;5.63;;
35150;SDS011;55720;51.972;4.624;2023-07-02T01:35:00;13.85;;;5.30;;
35150;SDS011;55720;51.972;4.624;2023-07-02T01:37:25;16.85;;;5.25;;
35150;SDS011;55720;51.972;4.624;2023-07-02T01:39:51;18.20;;;5.65;;
35150;SDS011;55720;51.972;4.624;2023-07-02T01:42:19;12.38;;;5.03;;
35150;SDS011;55720;51.972;4.624;2023-07-02T01:44:48;12.98;;;5.35;;
35150;SDS011;55720;51.972;4.624;2023-07-02T01:47:17;17.08;;;5.47;;
35150;SDS011;55720;51.972;4.624;2023-07-02T01:49:44;16.08;;;5.57;;
35150;SDS011;55720;51.972;4.624;2023-07-02T01:52:10;21.70;;;5.40;;
35150;SDS011;55720;51.972;4.624;2023-07-02T01:54:35;14.48;;;5.60;;
35150;SDS011;55720;51.972;4.624;2023-07-02T01:57:03;13.05;;;5.05;;
35150;SDS011;55720;51.972;4.624;2023-07-02T01:59:29;18.30;;;5.40;;
35150;SDS011;55720;51.972;4.624;2023-07-02T02:01:55;16.48;;;5.03;;
35150;SDS011;55720;51.972;4.624;2023-07-02T02:04:20;19.95;;;4.78;;
35150;SDS011;55720;51.972;4.624;2023-07-02T02:06:45;16.77;;;5.97;;
35150;SDS011;55720;51.972;4.624;2023-07-02T02:09:11;12.35;;;5.15;;
35150;SDS011;55720;51.972;4.624;2023-07-02T02:11:42;16.80;;;5.18;;
35150;SDS011;55720;51.972;4.624;2023-07-02T02:14:09;16.20;;;5.40;;
35150;SDS011;55720;51.972;4.624;2023-07-02T02:16:34;25.83;;;6.00;;
35150;SDS011;55720;51.972;4.624;2023-07-02T02:19:00;20.83;;;5.50;;
35150;SDS011;55720;51.972;4.624;2023-07-02T02:21:26;16.02;;;5.30;;
35150;SDS011;55720;51.972;4.624;2023-07-02T02:23:51;20.35;;;5.68;;
35150;SDS011;55720;51.972;4.624;2023-07-02T02:26:17;20.58;;;6.15;;
35150;SDS011;55720;51.972;4.624;2023-07-02T02:28:42;18.52;;;6.05;;
35150;SDS011;55720;51.972;4.624;2023-07-02T02:31:08;22.23;;;5.65;;
35150;SDS011;55720;51.972;4.624;2023-07-02T02:33:34;19.80;;;5.43;;
35150;SDS011;55720;51.972;4.624;2023-07-02T02:36:00;18.00;;;5.68;;
35150;SDS011;55720;51.972;4.624;2023-07-02T02:38:26;23.85;;;6.15;;
35150;SDS011;55720;51.972;4.624;2023-07-02T02:40:51;19.80;;;6.07;;
35150;SDS011;55720;51.972;4.624;2023-07-02T02:43:17;22.33;;;6.25;;
35150;SDS011;55720;51.972;4.624;2023-07-02T02:45:42;18.15;;;5.82;;
35150;SDS011;55720;51.972;4.624;2023-07-02T02:48:08;21.63;;;6.30;;
35150;SDS011;55720;51.972;4.624;2023-07-02T02:50:33;17.85;;;6.07;;
35150;SDS011;55720;51.972;4.624;2023-07-02T02:52:59;16.88;;;5.93;;
35150;SDS011;55720;51.972;4.624;2023-07-02T02:55:24;20.63;;;6.22;;
35150;SDS011;55720;51.972;4.624;2023-07-02T02:57:49;21.67;;;5.72;;
35150;SDS011;55720;51.972;4.624;2023-07-02T03:00:15;21.23;;;6.63;;
35150;SDS011;55720;51.972;4.624;2023-07-02T03:02:41;23.23;;;6.18;;
35150;SDS011;55720;51.972;4.624;2023-07-02T03:05:08;25.80;;;6.80;;
35150;SDS011;55720;51.972;4.624;2023-07-02T03:07:33;29.55;;;6.57;;
35150;SDS011;55720;51.972;4.624;2023-07-02T03:09:59;18.73;;;6.00;;
35150;SDS011;55720;51.972;4.624;2023-07-02T03:12:27;23.05;;;6.43;;
35150;SDS011;55720;51.972;4.624;2023-07-02T03:14:53;18.50;;;6.07;;
35150;SDS011;55720;51.972;4.624;2023-07-02T03:17:20;18.30;;;5.50;;
35150;SDS011;55720;51.972;4.624;2023-07-02T03:19:46;18.15;;;5.63;;
35150;SDS011;55720;51.972;4.624;2023-07-02T03:22:12;19.15;;;5.80;;
35150;SDS011;55720;51.972;4.624;2023-07-02T03:24:38;18.88;;;6.15;;
35150;SDS011;55720;51.972;4.624;2023-07-02T03:27:03;20.05;;;6.20;;
35150;SDS011;55720;51.972;4.624;2023-07-02T03:29:29;16.10;;;5.57;;
35150;SDS011;55720;51.972;4.624;2023-07-02T03:31:54;25.40;;;6.45;;
35150;SDS011;55720;51.972;4.624;2023-07-02T03:34:19;24.10;;;5.80;;
35150;SDS011;55720;51.972;4.624;2023-07-02T03:36:45;21.38;;;5.45;;
35150;SDS011;55720;51.972;4.624;2023-07-02T03:39:10;25.23;;;6.25;;
35150;SDS011;55720;51.972;4.624;2023-07-02T03:41:36;23.00;;;5.63;;
35150;SDS011;55720;51.972;4.624;2023-07-02T03:44:01;18.17;;;5.82;;
35150;SDS011;55720;51.972;4.624;2023-07-02T03:46:27;26.73;;;5.78;;
35150;SDS011;55720;51.972;4.624;2023-07-02T03:48:52;18.55;;;6.07;;
35150;SDS011;55720;51.972;4.624;2023-07-02T03:51:18;16.13;;;5.68;;
35150;SDS011;55720;51.972;4.624;2023-07-02T03:53:43;22.15;;;6.28;;
35150;SDS011;55720;51.972;4.624;2023-07-02T03:56:08;19.25;;;5.75;;
35150;SDS011;55720;51.972;4.624;2023-07-02T03:58:34;21.75;;;6.05;;
35150;SDS011;55720;51.972;4.624;2023-07-02T04:01:00;19.60;;;5.88;;
35150;SDS011;55720;51.972;4.624;2023-07-02T04:03:25;17.50;;;5.47;;
35150;SDS011;55720;51.972;4.624;2023-07-02T04:05:50;17.67;;;5.43;;
35150;SDS011;55720;51.972;4.624;2023-07-02T04:08:16;19.58;;;5.68;;
35150;SDS011;55720;51.972;4.624;2023-07-02T04:10:41;21.48;;;5.47;;
35150;SDS011;55720;51.972;4.624;2023-07-02T04:13:07;17.83;;;4.88;;
35150;SDS011;55720;51.972;4.624;2023-07-02T04:15:32;18.05;;;5.18;;
35150;SDS011;55720;51.972;4.624;2023-07-02T04:17:58;18.67;;;6.20;;
35150;SDS011;55720;51.972;4.624;2023-07-02T04:20:23;20.55;;;5.30;;
35150;SDS011;55720;51.972;4.624;2023-07-02T04:22:49;21.52;;;4.95;;
35150;SDS011;55720;51.972;4.624;2023-07-02T04:25:14;17.20;;;5.43;;
35150;SDS011;55720;51.972;4.624;2023-07-02T04:27:43;19.02;;;5.90;;
35150;SDS011;55720;51.972;4.624;2023-07-02T04:30:12;17.40;;;4.78;;
35150;SDS011;55720;51.972;4.624;2023-07-02T04:32:38;15.33;;;4.50;;
35150;SDS011;55720;51.972;4.624;2023-07-02T04:35:05;16.77;;;5.00;;
35150;SDS011;55720;51.972;4.624;2023-07-02T04:37:31;17.33;;;5.60;;
35150;SDS011;55720;51.972;4.624;2023-07-02T04:39:56;14.90;;;5.18;;
35150;SDS011;55720;51.972;4.624;2023-07-02T04:42:21;18.63;;;5.57;;
35150;SDS011;55720;51.972;4.624;2023-07-02T04:44:47;13.73;;;4.32;;
35150;SDS011;55720;51.972;4.624;2023-07-02T04:47:12;18.70;;;4.97;;
35150;SDS011;55720;51.972;4.624;2023-07-02T04:49:38;13.30;;;4.10;;
35150;SDS011;55720;51.972;4.624;2023-07-02T04:52:04;16.98;;;4.38;;
35150;SDS011;55720;51.972;4.624;2023-07-02T04:54:29;17.48;;;4.55;;
35150;SDS011;55720;51.972;4.624;2023-07-02T04:56:54;16.65;;;4.05;;
35150;SDS011;55720;51.972;4.624;2023-07-02T04:59:20;16.40;;;4.75;;
35150;SDS011;55720;51.972;4.624;2023-07-02T05:01:46;12.15;;;4.45;;
35150;SDS011;55720;51.972;4.624;2023-07-02T05:04:12;12.05;;;4.82;;
35150;SDS011;55720;51.972;4.624;2023-07-02T05:06:38;13.02;;;4.63;;
35150;SDS011;55720;51.972;4.624;2023-07-02T05:09:03;9.07;;;4.53;;
35150;SDS011;55720;51.972;4.624;2023-07-02T05:11:29;18.83;;;4.53;;
35150;SDS011;55720;51.972;4.624;2023-07-02T05:13:54;14.38;;;4.50;;
35150;SDS011;55720;51.972;4.624;2023-07-02T05:16:19;20.00;;;4.95;;
35150;SDS011;55720;51.972;4.624;2023-07-02T05:18:45;13.07;;;4.70;;
35150;SDS011;55720;51.972;4.624;2023-07-02T05:21:11;12.82;;;4.75;;
35150;SDS011;55720;51.972;4.624;2023-07-02T05:23:36;11.35;;;4.25;;
35150;SDS011;55720;51.972;4.624;2023-07-02T05:26:02;10.88;;;4.07;;
35150;SDS011;55720;51.972;4.624;2023-07-02T05:28:27;8.23;;;3.70;;
35150;SDS011;55720;51.972;4.624;2023-07-02T05:30:53;13.18;;;4.50;;
35150;SDS011;55720;51.972;4.624;2023-07-02T05:33:18;16.13;;;4.32;;
35150;SDS011;55720;51.972;4.624;2023-07-02T05:35:43;8.68;;;3.85;;
35150;SDS011;55720;51.972;4.624;2023-07-02T05:38:11;8.75;;;4.00;;
35150;SDS011;55720;51.972;4.624;2023-07-02T05:40:36;9.27;;;3.72;;
35150;SDS011;55720;51.972;4.624;2023-07-02T05:43:02;11.88;;;4.25;;
35150;SDS011;55720;51.972;4.624;2023-07-02T05:45:28;10.25;;;3.72;;
35150;SDS011;55720;51.972;4.624;2023-07-02T05:47:53;18.35;;;4.28;;
35150;SDS011;55720;51.972;4.624;2023-07-02T05:50:19;13.20;;;4.55;;
35150;SDS011;55720;51.972;4.624;2023-07-02T05:52:44;12.18;;;4.70;;
35150;SDS011;55720;51.972;4.624;2023-07-02T05:55:10;10.20;;;4.30;;
35150;SDS011;55720;51.972;4.624;2023-07-02T05:57:39;14.15;;;4.28;;
35150;SDS011;55720;51.972;4.624;2023-07-02T06:00:06;15.52;;;3.97;;
35150;SDS011;55720;51.972;4.624;2023-07-02T06:02:31;20.20;;;4.18;;
35150;SDS011;55720;51.972;4.624;2023-07-02T06:04:57;11.65;;;4.18;;
35150;SDS011;55720;51.972;4.624;2023-07-02T06:07:26;11.90;;;3.95;;
35150;SDS011;55720;51.972;4.624;2023-07-02T06:09:51;14.82;;;4.20;;
35150;SDS011;55720;51.972;4.624;2023-07-02T06:12:16;11.85;;;3.90;;
35150;SDS011;55720;51.972;4.624;2023-07-02T06:14:42;10.93;;;3.65;;
35150;SDS011;55720;51.972;4.624;2023-07-02T06:17:07;17.33;;;4.25;;
35150;SDS011;55720;51.972;4.624;2023-07-02T06:19:34;8.82;;;3.58;;
35150;SDS011;55720;51.972;4.624;2023-07-02T06:22:00;19.35;;;3.58;;
35150;SDS011;55720;51.972;4.624;2023-07-02T06:24:25;12.88;;;5.30;;
35150;SDS011;55720;51.972;4.624;2023-07-02T06:26:51;14.20;;;4.28;;
35150;SDS011;55720;51.972;4.624;2023-07-02T06:29:16;11.32;;;4.05;;
35150;SDS011;55720;51.972;4.624;2023-07-02T06:31:42;7.35;;;4.10;;
35150;SDS011;55720;51.972;4.624;2023-07-02T06:34:07;8.88;;;3.80;;
35150;SDS011;55720;51.972;4.624;2023-07-02T06:36:33;9.85;;;3.72;;
35150;SDS011;55720;51.972;4.624;2023-07-02T06:38:59;13.30;;;4.32;;
35150;SDS011;55720;51.972;4.624;2023-07-02T06:41:24;10.23;;;3.67;;
35150;SDS011;55720;51.972;4.624;2023-07-02T06:43:50;8.88;;;3.38;;
35150;SDS011;55720;51.972;4.624;2023-07-02T06:46:15;8.23;;;3.58;;
35150;SDS011;55720;51.972;4.624;2023-07-02T06:48:41;9.60;;;3.80;;
35150;SDS011;55720;51.972;4.624;2023-07-02T06:51:06;8.63;;;3.47;;
35150;SDS011;55720;51.972;4.624;2023-07-02T06:53:32;12.07;;;3.88;;
35150;SDS011;55720;51.972;4.624;2023-07-02T06:55:58;6.88;;;3.35;;
35150;SDS011;55720;51.972;4.624;2023-07-02T06:58:23;7.82;;;3.78;;
35150;SDS011;55720;51.972;4.624;2023-07-02T07:00:49;14.27;;;3.85;;
35150;SDS011;55720;51.972;4.624;2023-07-02T07:03:15;7.47;;;3.63;;
35150;SDS011;55720;51.972;4.624;2023-07-02T07:05:41;8.60;;;3.65;;
35150;SDS011;55720;51.972;4.624;2023-07-02T07:08:06;8.48;;;3.70;;
35150;SDS011;55720;51.972;4.624;2023-07-02T07:10:31;8.25;;;3.78;;
35150;SDS011;55720;51.972;4.624;2023-07-02T07:12:59;9.88;;;3.65;;
35150;SDS011;55720;51.972;4.624;2023-07-02T07:15:26;8.40;;;3.35;;
35150;SDS011;55720;51.972;4.624;2023-07-02T07:17:51;8.60;;;3.20;;
35150;SDS011;55720;51.972;4.624;2023-07-02T07:20:17;7.25;;;3.20;;
35150;SDS011;55720;51.972;4.624;2023-07-02T07:22:42;9.48;;;3.75;;
35150;SDS011;55720;51.972;4.624;2023-07-02T07:25:08;8.27;;;3.53;;
35150;SDS011;55720;51.972;4.624;2023-07-02T07:27:33;7.68;;;3.85;;
35150;SDS011;55720;51.972;4.624;2023-07-02T07:29:58;10.18;;;3.25;;
35150;SDS011;55720;51.972;4.624;2023-07-02T07:32:24;5.78;;;3.60;;
35150;SDS011;55720;51.972;4.624;2023-07-02T07:34:49;9.93;;;3.72;;
35150;SDS011;55720;51.972;4.624;2023-07-02T07:37:14;9.20;;;3.30;;
35150;SDS011;55720;51.972;4.624;2023-07-02T07:39:40;7.70;;;3.25;;
35150;SDS011;55720;51.972;4.624;2023-07-02T07:42:05;7.70;;;3.35;;
35150;SDS011;55720;51.972;4.624;2023-07-02T07:44:31;8.40;;;3.05;;
35150;SDS011;55720;51.972;4.624;2023-07-02T07:46:56;7.30;;;3.45;;
35150;SDS011;55720;51.972;4.624;2023-07-02T07:49:22;7.05;;;3.30;;
35150;SDS011;55720;51.972;4.624;2023-07-02T07:51:47;9.90;;;3.50;;
35150;SDS011;55720;51.972;4.624;2023-07-02T07:54:13;7.20;;;3.40;;
35150;SDS011;55720;51.972;4.624;2023-07-02T07:56:38;5.35;;;2.75;;
35150;SDS011;55720;51.972;4.624;2023-07-02T07:59:03;10.98;;;3.70;;
35150;SDS011;55720;51.972;4.624;2023-07-02T08:01:29;8.18;;;3.20;;
35150;SDS011;55720;51.972;4.624;2023-07-02T08:03:54;9.52;;;3.47;;
35150;SDS011;55720;51.972;4.624;2023-07-02T08:06:20;10.20;;;3.78;;
35150;SDS011;55720;51.972;4.624;2023-07-02T08:08:45;5.97;;;3.33;;
35150;SDS011;55720;51.972;4.624;2023-07-02T08:11:11;7.85;;;3.13;;
35150;SDS011;55720;51.972;4.624;2023-07-02T08:13:37;4.63;;;3.08;;
35150;SDS011;55720;51.972;4.624;2023-07-02T08:16:02;7.82;;;3.30;;
35150;SDS011;55720;51.972;4.624;2023-07-02T08:18:28;10.55;;;3.55;;
35150;SDS011;55720;51.972;4.624;2023-07-02T08:20:53;6.93;;;3.25;;
35150;SDS011;55720;51.972;4.624;2023-07-02T08:23:18;8.00;;;2.80;;
35150;SDS011;55720;51.972;4.624;2023-07-02T08:25:44;7.75;;;3.10;;
35150;SDS011;55720;51.972;4.624;2023-07-02T08:28:09;5.50;;;3.03;;
35150;SDS011;55720;51.972;4.624;2023-07-02T08:30:34;5.57;;;3.08;;
35150;SDS011;55720;51.972;4.624;2023-07-02T08:33:00;4.63;;;2.78;;
35150;SDS011;55720;51.972;4.624;2023-07-02T08:35:25;8.52;;;2.58;;
35150;SDS011;55720;51.972;4.624;2023-07-02T08:37:51;4.95;;;3.13;;
35150;SDS011;55720;51.972;4.624;2023-07-02T08:40:16;6.70;;;2.63;;
35150;SDS011;55720;51.972;4.624;2023-07-02T08:42:44;5.00;;;2.75;;
35150;SDS011;55720;51.972;4.624;2023-07-02T08:45:12;5.88;;;2.40;;
35150;SDS011;55720;51.972;4.624;2023-07-02T08:47:39;4.65;;;2.25;;
35150;SDS011;55720;51.972;4.624;2023-07-02T08:50:05;4.97;;;2.30;;
35150;SDS011;55720;51.972;4.624;2023-07-02T08:52:31;4.70;;;2.65;;
35150;SDS011;55720;51.972;4.624;2023-07-02T08:54:56;7.18;;;3.10;;
35150;SDS011;55720;51.972;4.624;2023-07-02T08:57:22;5.97;;;2.40;;
35150;SDS011;55720;51.972;4.624;2023-07-02T08:59:47;6.13;;;2.63;;
35150;SDS011;55720;51.972;4.624;2023-07-02T09:02:14;7.57;;;3.10;;
35150;SDS011;55720;51.972;4.624;2023-07-02T09:04:39;8.35;;;2.97;;
35150;SDS011;55720;51.972;4.624;2023-07-02T09:07:08;6.88;;;2.78;;
35150;SDS011;55720;51.972;4.624;2023-07-02T09:09:44;7.78;;;2.80;;
35150;SDS011;55720;51.972;4.624;2023-07-02T09:12:23;5.47;;;2.60;;
35150;SDS011;55720;51.972;4.624;2023-07-02T09:14:59;6.47;;;2.90;;
35150;SDS011;55720;51.972;4.624;2023-07-02T09:17:34;7.95;;;2.80;;
35150;SDS011;55720;51.972;4.624;2023-07-02T09:20:01;5.03;;;2.25;;
35150;SDS011;55720;51.972;4.624;2023-07-02T09:22:29;4.37;;;2.37;;
35150;SDS011;55720;51.972;4.624;2023-07-02T09:24:58;5.55;;;1.92;;
35150;SDS011;55720;51.972;4.624;2023-07-02T09:27:37;4.63;;;1.92;;
35150;SDS011;55720;51.972;4.624;2023-07-02T09:32:41;4.78;;;1.77;;
35150;SDS011;55720;51.972;4.624;2023-07-02T09:35:08;2.85;;;1.88;;
35150;SDS011;55720;51.972;4.624;2023-07-02T09:37:33;4.97;;;2.05;;
35150;SDS011;55720;51.972;4.624;2023-07-02T09:39:59;3.10;;;1.60;;
35150;SDS011;55720;51.972;4.624;2023-07-02T09:42:26;4.18;;;1.52;;
35150;SDS011;55720;51.972;4.624;2023-07-02T09:44:54;4.22;;;1.92;;
35150;SDS011;55720;51.972;4.624;2023-07-02T09:47:21;4.68;;;2.00;;
35150;SDS011;55720;51.972;4.624;2023-07-02T09:49:54;6.82;;;2.60;;
35150;SDS011;55720;51.972;4.624;2023-07-02T09:52:23;9.40;;;3.88;;
35150;SDS011;55720;51.972;4.624;2023-07-02T09:54:48;3.40;;;1.95;;
35150;SDS011;55720;51.972;4.624;2023-07-02T09:57:14;7.03;;;3.00;;
35150;SDS011;55720;51.972;4.624;2023-07-02T09:59:39;8.18;;;2.40;;
35150;SDS011;55720;51.972;4.624;2023-07-02T10:02:05;4.00;;;2.20;;
35150;SDS011;55720;51.972;4.624;2023-07-02T10:04:40;7.68;;;2.50;;
35150;SDS011;55720;51.972;4.624;2023-07-02T10:07:07;3.58;;;2.00;;
35150;SDS011;55720;51.972;4.624;2023-07-02T10:09:39;5.32;;;2.30;;
35150;SDS011;55720;51.972;4.624;2023-07-02T10:12:18;5.18;;;2.60;;
35150;SDS011;55720;51.972;4.624;2023-07-02T10:14:44;3.97;;;2.40;;
35150;SDS011;55720;51.972;4.624;2023-07-02T10:17:10;4.15;;;2.45;;
35150;SDS011;55720;51.972;4.624;2023-07-02T10:19:58;4.25;;;2.30;;
35150;SDS011;55720;51.972;4.624;2023-07-02T10:22:25;3.78;;;2.13;;
35150;SDS011;55720;51.972;4.624;2023-07-02T10:24:54;4.80;;;2.20;;
35150;SDS011;55720;51.972;4.624;2023-07-02T10:27:37;5.28;;;2.17;;
35150;SDS011;55720;51.972;4.624;2023-07-02T10:30:05;4.43;;;2.17;;
35150;SDS011;55720;51.972;4.624;2023-07-02T10:32:32;4.93;;;2.38;;
35150;SDS011;55720;51.972;4.624;2023-07-02T10:34:59;5.47;;;2.53;;
35150;SDS011;55720;51.972;4.624;2023-07-02T10:37:27;4.75;;;2.17;;
35150;SDS011;55720;51.972;4.624;2023-07-02T10:40:01;5.60;;;2.15;;
35150;SDS011;55720;51.972;4.624;2023-07-02T10:42:29;3.78;;;2.08;;
35150;SDS011;55720;51.972;4.624;2023-07-02T10:44:55;5.00;;;2.67;;
35150;SDS011;55720;51.972;4.624;2023-07-02T10:47:21;7.75;;;2.15;;
35150;SDS011;55720;51.972;4.624;2023-07-02T10:49:46;5.15;;;2.53;;
35150;SDS011;55720;51.972;4.624;2023-07-02T10:52:11;5.43;;;2.58;;
35150;SDS011;55720;51.972;4.624;2023-07-02T10:54:41;3.95;;;2.45;;
35150;SDS011;55720;51.972;4.624;2023-07-02T10:57:07;4.23;;;2.43;;
35150;SDS011;55720;51.972;4.624;2023-07-02T10:59:33;3.53;;;2.40;;
35150;SDS011;55720;51.972;4.624;2023-07-02T11:01:58;4.05;;;2.35;;
35150;SDS011;55720;51.972;4.624;2023-07-02T11:04:27;4.53;;;2.53;;
35150;SDS011;55720;51.972;4.624;2023-07-02T11:06:53;5.05;;;2.63;;
35150;SDS011;55720;51.972;4.624;2023-07-02T11:09:19;3.88;;;2.25;;
35150;SDS011;55720;51.972;4.624;2023-07-02T11:11:52;5.78;;;2.22;;
35150;SDS011;55720;51.972;4.624;2023-07-02T11:16:53;9.25;;;3.35;;
35150;SDS011;55720;51.972;4.624;2023-07-02T11:19:20;4.13;;;2.95;;
35150;SDS011;55720;51.972;4.624;2023-07-02T11:21:53;3.70;;;2.63;;
35150;SDS011;55720;51.972;4.624;2023-07-02T11:24:26;5.35;;;3.03;;
35150;SDS011;55720;51.972;4.624;2023-07-02T11:26:56;5.63;;;3.10;;
35150;SDS011;55720;51.972;4.624;2023-07-02T11:29:22;5.10;;;2.67;;
35150;SDS011;55720;51.972;4.624;2023-07-02T11:31:48;6.07;;;3.15;;
35150;SDS011;55720;51.972;4.624;2023-07-02T11:34:17;5.30;;;3.25;;
35150;SDS011;55720;51.972;4.624;2023-07-02T11:36:44;7.75;;;3.00;;
35150;SDS011;55720;51.972;4.624;2023-07-02T11:39:09;8.30;;;3.80;;
35150;SDS011;55720;51.972;4.624;2023-07-02T11:41:38;5.68;;;2.95;;
35150;SDS011;55720;51.972;4.624;2023-07-02T11:44:04;4.65;;;3.00;;
35150;SDS011;55720;51.972;4.624;2023-07-02T11:46:30;5.07;;;3.35;;
35150;SDS011;55720;51.972;4.624;2023-07-02T11:48:56;6.18;;;2.90;;
35150;SDS011;55720;51.972;4.624;2023-07-02T11:51:21;6.25;;;2.90;;
35150;SDS011;55720;51.972;4.624;2023-07-02T11:53:47;4.95;;;2.90;;
35150;SDS011;55720;51.972;4.624;2023-07-02T11:56:12;7.07;;;3.17;;
35150;SDS011;55720;51.972;4.624;2023-07-02T11:58:38;5.82;;;2.75;;
35150;SDS011;55720;51.972;4.624;2023-07-02T12:01:04;8.55;;;3.85;;
35150;SDS011;55720;51.972;4.624;2023-07-02T12:03:29;5.68;;;3.65;;
35150;SDS011;55720;51.972;4.624;2023-07-02T12:05:55;9.18;;;3.75;;
35150;SDS011;55720;51.972;4.624;2023-07-02T12:08:21;5.93;;;3.47;;
35150;SDS011;55720;51.972;4.624;2023-07-02T12:10:46;7.50;;;3.38;;
35150;SDS011;55720;51.972;4.624;2023-07-02T12:13:12;23.58;;;8.13;;
35150;SDS011;55720;51.972;4.624;2023-07-02T12:15:37;10.18;;;4.45;;
35150;SDS011;55720;51.972;4.624;2023-07-02T12:18:02;10.85;;;3.55;;
35150;SDS011;55720;51.972;4.624;2023-07-02T12:20:28;8.73;;;3.88;;
35150;SDS011;55720;51.972;4.624;2023-07-02T12:22:53;6.10;;;3.33;;
35150;SDS011;55720;51.972;4.624;2023-07-02T12:25:19;4.15;;;2.85;;
35150;SDS011;55720;51.972;4.624;2023-07-02T12:27:44;9.10;;;3.10;;
35150;SDS011;55720;51.972;4.624;2023-07-02T12:30:09;7.53;;;3.30;;
35150;SDS011;55720;51.972;4.624;2023-07-02T12:32:35;6.07;;;3.45;;
35150;SDS011;55720;51.972;4.624;2023-07-02T12:35:03;6.45;;;3.05;;
35150;SDS011;55720;51.972;4.624;2023-07-02T12:37:28;8.80;;;3.05;;
35150;SDS011;55720;51.972;4.624;2023-07-02T12:39:54;4.47;;;3.25;;
35150;SDS011;55720;51.972;4.624;2023-07-02T12:42:19;5.63;;;2.97;;
35150;SDS011;55720;51.972;4.624;2023-07-02T12:44:44;5.88;;;3.90;;
35150;SDS011;55720;51.972;4.624;2023-07-02T12:47:10;5.78;;;3.10;;
35150;SDS011;55720;51.972;4.624;2023-07-02T12:49:36;5.80;;;3.53;;
35150;SDS011;55720;51.972;4.624;2023-07-02T12:52:01;6.60;;;2.90;;
35150;SDS011;55720;51.972;4.624;2023-07-02T12:54:27;7.38;;;2.88;;
35150;SDS011;55720;51.972;4.624;2023-07-02T12:56:53;5.88;;;2.95;;
35150;SDS011;55720;51.972;4.624;2023-07-02T12:59:18;7.80;;;3.00;;
35150;SDS011;55720;51.972;4.624;2023-07-02T13:01:44;7.05;;;3.58;;
35150;SDS011;55720;51.972;4.624;2023-07-02T13:04:09;5.40;;;2.97;;
35150;SDS011;55720;51.972;4.624;2023-07-02T13:06:35;7.47;;;3.47;;
35150;SDS011;55720;51.972;4.624;2023-07-02T13:09:05;10.85;;;3.90;;
35150;SDS011;55720;51.972;4.624;2023-07-02T13:11:33;9.27;;;3.88;;
35150;SDS011;55720;51.972;4.624;2023-07-02T13:13:58;7.53;;;3.67;;
35150;SDS011;55720;51.972;4.624;2023-07-02T13:16:24;6.90;;;3.42;;
35150;SDS011;55720;51.972;4.624;2023-07-02T13:18:49;14.07;;;3.65;;
35150;SDS011;55720;51.972;4.624;2023-07-02T13:21:15;5.88;;;3.10;;
35150;SDS011;55720;51.972;4.624;2023-07-02T13:23:40;4.18;;;2.95;;
35150;SDS011;55720;51.972;4.624;2023-07-02T13:26:06;4.93;;;2.80;;
35150;SDS011;55720;51.972;4.624;2023-07-02T13:28:31;5.25;;;3.28;;
35150;SDS011;55720;51.972;4.624;2023-07-02T13:30:56;4.40;;;3.35;;
35150;SDS011;55720;51.972;4.624;2023-07-02T13:33:22;5.78;;;3.47;;
35150;SDS011;55720;51.972;4.624;2023-07-02T13:35:47;8.18;;;3.65;;
35150;SDS011;55720;51.972;4.624;2023-07-02T13:38:13;5.30;;;3.30;;
35150;SDS011;55720;51.972;4.624;2023-07-02T13:40:38;9.88;;;3.60;;
35150;SDS011;55720;51.972;4.624;2023-07-02T13:43:03;5.07;;;3.05;;
35150;SDS011;55720;51.972;4.624;2023-07-02T13:45:29;8.35;;;3.00;;
35150;SDS011;55720;51.972;4.624;2023-07-02T13:47:54;5.03;;;2.47;;
35150;SDS011;55720;51.972;4.624;2023-07-02T13:50:20;5.22;;;2.38;;
35150;SDS011;55720;51.972;4.624;2023-07-02T13:52:45;3.65;;;2.42;;
35150;SDS011;55720;51.972;4.624;2023-07-02T13:55:11;4.65;;;2.50;;
35150;SDS011;55720;51.972;4.624;2023-07-02T13:57:37;4.10;;;2.58;;
35150;SDS011;55720;51.972;4.624;2023-07-02T14:00:02;8.65;;;2.33;;
35150;SDS011;55720;51.972;4.624;2023-07-02T14:02:29;4.05;;;2.60;;
35150;SDS011;55720;51.972;4.624;2023-07-02T14:04:56;5.28;;;3.13;;
35150;SDS011;55720;51.972;4.624;2023-07-02T14:07:23;5.75;;;2.58;;
35150;SDS011;55720;51.972;4.624;2023-07-02T14:09:48;3.78;;;2.33;;
35150;SDS011;55720;51.972;4.624;2023-07-02T14:12:14;5.43;;;2.47;;
35150;SDS011;55720;51.972;4.624;2023-07-02T14:14:39;3.55;;;2.88;;
35150;SDS011;55720;51.972;4.624;2023-07-02T14:17:05;6.00;;;2.25;;
35150;SDS011;55720;51.972;4.624;2023-07-02T14:19:30;8.48;;;4.10;;
35150;SDS011;55720;51.972;4.624;2023-07-02T14:21:56;5.13;;;3.17;;
35150;SDS011;55720;51.972;4.624;2023-07-02T14:24:21;4.22;;;2.53;;
35150;SDS011;55720;51.972;4.624;2023-07-02T14:26:46;4.75;;;2.63;;
35150;SDS011;55720;51.972;4.624;2023-07-02T14:29:12;5.32;;;2.28;;
35150;SDS011;55720;51.972;4.624;2023-07-02T14:31:37;6.47;;;2.60;;
35150;SDS011;55720;51.972;4.624;2023-07-02T14:34:02;5.07;;;3.40;;
35150;SDS011;55720;51.972;4.624;2023-07-02T14:36:28;5.65;;;3.10;;
35150;SDS011;55720;51.972;4.624;2023-07-02T14:38:53;5.78;;;2.63;;
35150;SDS011;55720;51.972;4.624;2023-07-02T14:41:18;5.55;;;2.63;;
35150;SDS011;55720;51.972;4.624;2023-07-02T14:43:44;4.82;;;3.00;;